Time;durP1;ratioP1;P1;durP2;ratioP2;P2;SDS_P1;SDS_P2;PMS_P1;PMS_P2;Temp;Humidity;BMP_temperature;BMP_pressure;BME280_temperature;BME280_humidity;BME280_pressure;Samples;Min_cycle;Max_cycle;Signal;HPM_P1;HPM_P2
2022/04/17 04:01:00;;;;;;;14.68;7.90;;;5.30;99.90;;;;;;5731978;23;20046;-81
2022/04/17 04:03:34;;;;;;;11.48;7.00;;;5.20;99.90;;;;;;4994813;28;20534;-80
2022/04/17 04:06:00;;;;;;;15.65;7.47;;;5.20;99.90;;;;;;4994445;28;20081;-80
2022/04/17 04:08:26;;;;;;;12.65;7.35;;;5.20;99.90;;;;;;4993282;28;20069;-81
2022/04/17 04:10:53;;;;;;;13.43;7.20;;;5.10;99.90;;;;;;4993823;28;20483;-79
2022/04/17 04:13:19;;;;;;;12.60;7.25;;;5.10;99.90;;;;;;4993557;28;20121;-82
2022/04/17 04:15:44;;;;;;;12.48;6.93;;;5.10;99.90;;;;;;4993420;28;20077;-81
2022/04/17 04:18:10;;;;;;;11.35;6.63;;;5.00;99.90;;;;;;4994772;28;20082;-79
2022/04/17 04:20:35;;;;;;;13.18;7.30;;;4.90;99.90;;;;;;4992980;28;20054;-81
2022/04/17 04:23:01;;;;;;;11.68;7.10;;;5.00;99.90;;;;;;4994372;28;20038;-79
2022/04/17 04:25:27;;;;;;;11.35;6.88;;;4.90;99.90;;;;;;4993323;28;20165;-81
2022/04/17 04:30:37;;;;;;;13.77;7.45;;;4.90;99.90;;;;;;4992913;28;20038;-80
2022/04/17 04:33:03;;;;;;;13.45;7.55;;;4.90;99.90;;;;;;4996411;28;20392;-79
2022/04/17 04:35:33;;;;;;;12.05;6.85;;;4.80;99.90;;;;;;4997034;28;20043;-80
2022/04/17 04:38:00;;;;;;;14.52;7.70;;;4.80;99.90;;;;;;4980323;28;20458;-79
2022/04/17 04:40:29;;;;;;;13.30;6.80;;;4.70;99.90;;;;;;4997011;28;20070;-80
2022/04/17 04:43:02;;;;;;;14.52;7.57;;;4.70;99.90;;;;;;4981612;28;20521;-81
2022/04/17 04:48:13;;;;;;;14.02;7.40;;;4.60;99.90;;;;;;4997182;28;20475;-81
2022/04/17 04:50:39;;;;;;;12.75;7.55;;;4.60;99.90;;;;;;4997607;28;20502;-81
2022/04/17 04:53:05;;;;;;;12.02;7.15;;;4.50;99.90;;;;;;4997811;28;20069;-80
2022/04/17 04:55:30;;;;;;;13.35;7.53;;;4.60;99.90;;;;;;4998085;28;20466;-81
2022/04/17 04:57:56;;;;;;;13.70;8.00;;;4.50;99.90;;;;;;4997507;28;20487;-82
2022/04/17 05:00:22;;;;;;;14.27;7.55;;;4.60;99.90;;;;;;4999231;28;20364;-81
2022/04/17 05:02:47;;;;;;;14.18;7.68;;;4.50;99.90;;;;;;4997253;28;20085;-82
2022/04/17 05:05:13;;;;;;;14.52;8.38;;;4.60;99.90;;;;;;4997410;28;20042;-81
2022/04/17 05:07:39;;;;;;;16.75;8.02;;;4.60;99.90;;;;;;4981027;28;20050;-82
2022/04/17 05:10:06;;;;;;;15.32;7.75;;;4.60;99.90;;;;;;4999204;28;20394;-80
2022/04/17 05:12:32;;;;;;;13.63;8.18;;;4.70;99.90;;;;;;4997918;28;20042;-81
2022/04/17 05:14:58;;;;;;;13.32;7.30;;;4.60;99.90;;;;;;4998029;28;20375;-80
2022/04/17 05:17:23;;;;;;;13.23;7.53;;;4.60;99.90;;;;;;4998312;28;20046;-79
2022/04/17 05:19:50;;;;;;;11.88;7.28;;;4.60;99.90;;;;;;5000044;28;20102;-83
2022/04/17 05:22:16;;;;;;;15.32;7.68;;;4.70;99.90;;;;;;4998367;28;20490;-83
2022/04/17 05:24:45;;;;;;;15.35;7.70;;;4.70;99.90;;;;;;4998517;28;20092;-82
2022/04/17 05:27:12;;;;;;;14.63;8.18;;;4.70;99.90;;;;;;4980382;28;20042;-79
2022/04/17 05:29:38;;;;;;;14.32;8.15;;;4.80;99.90;;;;;;4996125;28;20402;-80
2022/04/17 05:32:04;;;;;;;12.15;7.38;;;4.80;99.90;;;;;;4997935;28;20125;-82
2022/04/17 05:34:30;;;;;;;12.02;7.78;;;4.80;99.90;;;;;;4997086;28;20117;-81
2022/04/17 05:36:56;;;;;;;16.20;8.07;;;4.80;99.90;;;;;;4996248;28;20419;-81
2022/04/17 05:39:22;;;;;;;14.90;7.95;;;4.90;99.90;;;;;;4996991;28;20042;-82
2022/04/17 05:41:49;;;;;;;14.50;7.57;;;4.90;99.90;;;;;;4996411;28;20042;-82
2022/04/17 05:44:15;;;;;;;13.55;7.90;;;5.00;99.90;;;;;;4996131;28;20046;-81
2022/04/17 05:46:42;;;;;;;13.95;8.02;;;5.00;99.90;;;;;;4997088;28;20073;-80
2022/04/17 05:49:08;;;;;;;12.40;7.85;;;5.00;99.90;;;;;;4996571;28;20050;-80
2022/04/17 05:51:35;;;;;;;12.70;8.00;;;5.10;99.90;;;;;;4996436;28;20038;-81
2022/04/17 05:54:05;;;;;;;14.50;8.20;;;5.10;99.90;;;;;;4997797;28;20042;-81
2022/04/17 05:56:31;;;;;;;14.07;7.72;;;5.20;99.90;;;;;;4996807;28;20038;-82
2022/04/17 05:58:57;;;;;;;15.98;8.32;;;5.20;99.90;;;;;;4996023;28;20482;-81
2022/04/17 06:01:24;;;;;;;13.82;8.15;;;5.30;99.90;;;;;;4997179;28;20040;-82
2022/04/17 06:03:50;;;;;;;15.13;8.20;;;5.30;99.90;;;;;;4997349;28;20050;-81
2022/04/17 06:06:19;;;;;;;12.68;7.63;;;5.40;99.90;;;;;;4996144;28;20049;-81
2022/04/17 06:08:46;;;;;;;14.52;7.70;;;5.40;99.90;;;;;;4995919;28;20109;-82
2022/04/17 06:11:12;;;;;;;22.33;8.00;;;5.50;99.90;;;;;;4995887;28;20043;-81
2022/04/17 06:13:38;;;;;;;12.85;7.45;;;5.50;99.90;;;;;;4995912;28;20052;-82
2022/04/17 06:16:04;;;;;;;12.27;7.57;;;5.60;99.90;;;;;;4996098;28;20422;-82
2022/04/17 06:18:30;;;;;;;13.23;7.53;;;5.60;99.90;;;;;;4995855;28;20042;-80
2022/04/17 06:20:56;;;;;;;11.60;7.22;;;5.70;99.90;;;;;;4996841;28;20038;-83
2022/04/17 06:23:22;;;;;;;18.10;7.82;;;5.80;99.90;;;;;;4997307;28;20117;-82
2022/04/17 06:25:48;;;;;;;12.98;8.05;;;5.90;99.90;;;;;;4995816;28;20490;-82
2022/04/17 06:28:13;;;;;;;13.85;8.02;;;5.90;99.90;;;;;;4996428;28;20088;-81
2022/04/17 06:30:39;;;;;;;14.10;8.05;;;6.00;99.90;;;;;;4995553;28;20395;-82
2022/04/17 06:33:04;;;;;;;13.30;8.40;;;6.10;99.90;;;;;;4995521;28;20038;-83
2022/04/17 06:35:30;;;;;;;15.50;8.23;;;6.20;99.90;;;;;;4996856;28;20114;-80
2022/04/17 06:38:01;;;;;;;14.13;7.75;;;6.30;99.90;;;;;;4995130;28;20053;-82
2022/04/17 06:40:32;;;;;;;18.48;8.55;;;6.40;99.90;;;;;;4979222;28;20038;-82
2022/04/17 06:43:01;;;;;;;16.33;7.90;;;6.40;99.90;;;;;;4996838;28;20042;-81
2022/04/17 06:45:28;;;;;;;12.55;7.68;;;6.50;99.90;;;;;;4995504;28;20038;-81
2022/04/17 06:47:54;;;;;;;13.38;8.48;;;6.60;99.90;;;;;;4996492;28;20105;-79
2022/04/17 06:50:20;;;;;;;13.95;8.10;;;6.60;99.90;;;;;;4997407;28;20038;-81
2022/04/17 06:52:46;;;;;;;13.25;8.07;;;6.70;99.90;;;;;;5006495;28;20078;-80
2022/04/17 06:55:13;;;;;;;14.63;8.25;;;6.80;99.90;;;;;;5004113;28;20047;-80
2022/04/17 06:57:45;;;;;;;14.82;8.60;;;6.90;99.90;;;;;;4997429;28;20039;-82
2022/04/17 07:00:12;;;;;;;13.88;8.00;;;6.90;99.90;;;;;;4997252;28;20034;-83
2022/04/17 07:02:42;;;;;;;14.15;8.40;;;7.00;99.90;;;;;;4994830;28;20042;-80
2022/04/17 07:05:08;;;;;;;13.25;8.02;;;7.10;99.90;;;;;;4995342;28;20034;-81
2022/04/17 07:07:34;;;;;;;13.40;8.13;;;7.10;99.90;;;;;;4994660;28;20049;-80
2022/04/17 07:10:01;;;;;;;12.32;7.72;;;7.20;99.90;;;;;;4994597;28;20042;-80
2022/04/17 07:12:27;;;;;;;13.75;8.10;;;7.30;99.90;;;;;;4994451;28;20525;-81
2022/04/17 07:14:53;;;;;;;12.57;7.97;;;7.40;99.90;;;;;;4995962;28;20038;-80
2022/04/17 07:17:20;;;;;;;12.15;6.95;;;7.50;99.90;;;;;;4994222;28;20045;-80
2022/04/17 07:19:46;;;;;;;13.63;7.18;;;7.60;99.90;;;;;;4993945;28;20109;-82
2022/04/17 07:22:13;;;;;;;12.65;7.32;;;7.70;99.90;;;;;;4977904;28;20398;-82
2022/04/17 07:24:40;;;;;;;10.50;6.45;;;7.80;99.90;;;;;;4994026;28;20522;-82
2022/04/17 07:27:06;;;;;;;10.55;6.55;;;7.90;99.90;;;;;;4994486;28;20121;-83
2022/04/17 07:29:32;;;;;;;12.20;6.75;;;8.00;99.90;;;;;;4994005;28;20538;-83
2022/04/17 07:31:57;;;;;;;10.68;6.70;;;8.10;99.90;;;;;;4994019;28;20042;-83
2022/04/17 07:34:23;;;;;;;12.50;6.93;;;8.20;99.90;;;;;;4996198;28;20046;-82
2022/04/17 07:36:52;;;;;;;10.35;6.35;;;8.30;99.90;;;;;;4994325;28;20130;-82
2022/04/17 07:39:19;;;;;;;11.13;6.82;;;8.40;99.90;;;;;;4995929;28;20137;-81
2022/04/17 07:41:46;;;;;;;11.75;6.93;;;8.50;99.90;;;;;;4977906;28;20050;-80
2022/04/17 07:44:12;;;;;;;14.23;6.85;;;8.60;99.90;;;;;;4995884;28;20417;-83
2022/04/17 07:46:39;;;;;;;11.73;6.63;;;8.70;99.90;;;;;;4995544;28;20117;-84
2022/04/17 07:49:05;;;;;;;13.05;6.68;;;8.80;99.90;;;;;;4994507;28;20124;-83
2022/04/17 07:51:31;;;;;;;12.45;5.90;;;8.90;99.90;;;;;;4995739;28;20058;-82
2022/04/17 07:53:56;;;;;;;10.15;6.10;;;9.00;99.90;;;;;;4994418;28;20129;-81
2022/04/17 07:56:22;;;;;;;10.20;6.07;;;9.10;99.90;;;;;;4995320;28;20045;-81
2022/04/17 07:58:48;;;;;;;9.82;5.55;;;9.30;99.90;;;;;;4993939;28;20100;-82
2022/04/17 08:01:15;;;;;;;10.07;6.20;;;9.40;99.90;;;;;;4994555;28;20039;-80
2022/04/17 08:06:09;;;;;;;9.55;5.45;;;9.60;99.90;;;;;;4995178;28;20042;-81
2022/04/17 08:08:39;;;;;;;9.85;5.20;;;9.70;99.90;;;;;;4993731;28;20138;-80
2022/04/17 08:11:05;;;;;;;7.28;4.43;;;9.90;99.90;;;;;;4994874;28;20050;-80
2022/04/17 08:13:32;;;;;;;7.72;4.30;;;9.90;99.90;;;;;;4995841;28;20085;-80
2022/04/17 08:15:57;;;;;;;8.43;4.53;;;10.00;99.90;;;;;;4994832;28;20117;-82
2022/04/17 08:18:23;;;;;;;7.80;4.35;;;10.10;99.90;;;;;;4994306;28;20097;-81
2022/04/17 08:20:49;;;;;;;6.95;4.60;;;10.20;99.90;;;;;;4995563;28;20046;-80
2022/04/17 08:23:14;;;;;;;8.30;4.57;;;10.20;99.90;;;;;;4994126;28;20039;-81
2022/04/17 08:25:40;;;;;;;9.20;4.45;;;10.40;99.90;;;;;;4995601;28;20060;-82
2022/04/17 08:28:06;;;;;;;7.30;4.38;;;10.40;99.90;;;;;;4996016;28;20046;-81
2022/04/17 08:30:33;;;;;;;8.18;4.53;;;10.50;99.90;;;;;;4994139;28;20459;-81
2022/04/17 08:33:01;;;;;;;9.43;4.70;;;10.70;99.90;;;;;;4993645;28;20035;-79
2022/04/17 08:35:27;;;;;;;9.48;5.10;;;11.30;99.90;;;;;;4993824;28;20042;-82
2022/04/17 08:37:55;;;;;;;5.97;4.00;;;12.30;99.90;;;;;;4977554;28;20101;-81
2022/04/17 08:40:20;;;;;;;9.27;4.50;;;13.30;99.00;;;;;;4995378;28;20117;-81
2022/04/17 08:42:48;;;;;;;8.57;4.90;;;14.10;96.90;;;;;;4995520;28;20073;-83
2022/04/17 08:45:13;;;;;;;10.55;5.00;;;14.60;93.90;;;;;;4995330;28;20446;-80
2022/04/17 08:47:41;;;;;;;9.82;4.60;;;14.70;91.00;;;;;;4993904;28;20038;-81
2022/04/17 08:50:08;;;;;;;8.40;4.68;;;14.80;89.90;;;;;;4995283;28;20398;-81
2022/04/17 08:52:34;;;;;;;7.68;4.75;;;15.10;87.30;;;;;;4994099;28;20053;-82
2022/04/17 08:55:01;;;;;;;6.47;4.30;;;15.30;86.10;;;;;;4995053;28;20092;-83
2022/04/17 08:57:27;;;;;;;8.05;4.35;;;15.20;80.50;;;;;;4993435;28;20057;-80
2022/04/17 08:59:53;;;;;;;9.93;4.95;;;14.50;80.70;;;;;;4994388;28;20038;-83
2022/04/17 09:02:19;;;;;;;8.38;5.18;;;14.00;83.60;;;;;;4993257;28;20049;-82
2022/04/17 09:04:45;;;;;;;8.18;4.93;;;13.90;85.50;;;;;;4977360;28;20047;-81
2022/04/17 09:07:11;;;;;;;7.32;4.95;;;14.30;86.00;;;;;;4994150;28;20042;-83
2022/04/17 09:09:47;;;;;;;7.35;4.72;;;14.70;86.80;;;;;;4994729;28;20055;-83
2022/04/17 09:12:20;;;;;;;8.57;5.00;;;15.00;83.70;;;;;;4993308;28;20043;-83
2022/04/17 09:14:46;;;;;;;7.35;4.50;;;15.10;82.40;;;;;;4977044;28;20089;-82
2022/04/17 09:17:11;;;;;;;13.00;5.18;;;15.40;83.90;;;;;;4994662;28;20034;-81
2022/04/17 09:19:37;;;;;;;8.52;4.85;;;15.50;82.70;;;;;;4996480;28;20497;-82
2022/04/17 09:22:05;;;;;;;8.10;4.50;;;15.40;79.80;;;;;;4998220;28;20046;-82
2022/04/17 09:24:35;;;;;;;11.38;5.32;;;15.30;80.50;;;;;;4996981;28;20402;-83
2022/04/17 09:27:01;;;;;;;8.27;4.70;;;15.00;80.60;;;;;;4998667;28;20046;-81
2022/04/17 09:29:30;;;;;;;7.50;5.05;;;14.60;81.30;;;;;;4998635;28;20104;-81
2022/04/17 09:32:05;;;;;;;8.68;5.05;;;14.30;83.10;;;;;;4998343;28;20050;-84
2022/04/17 09:34:55;;;;;;;9.57;4.93;;;14.20;84.10;;;;;;4996288;28;20038;-82
2022/04/17 09:37:27;;;;;;;6.72;4.70;;;14.10;84.30;;;;;;4998037;28;20106;-86
2022/04/17 09:40:04;;;;;;;8.27;4.88;;;14.10;86.10;;;;;;4995780;28;20046;-80
2022/04/17 09:42:30;;;;;;;6.75;4.55;;;14.20;86.60;;;;;;4995985;28;20501;-82
2022/04/17 09:44:57;;;;;;;8.18;5.00;;;14.40;86.20;;;;;;4995793;28;20043;-81
2022/04/17 09:47:28;;;;;;;7.50;4.70;;;14.60;84.60;;;;;;4995844;28;20355;-80
2022/04/17 09:50:02;;;;;;;7.95;4.65;;;14.80;83.60;;;;;;4979087;28;20462;-82
2022/04/17 09:52:33;;;;;;;7.88;4.45;;;15.00;87.00;;;;;;4996030;28;20558;-81
2022/04/17 09:55:00;;;;;;;8.93;4.43;;;15.30;85.70;;;;;;4995429;28;20479;-82
2022/04/17 09:57:29;;;;;;;7.32;4.85;;;15.40;84.20;;;;;;4997576;28;20050;-82
2022/04/17 10:00:07;;;;;;;7.20;4.72;;;15.50;82.90;;;;;;4998609;28;20046;-81
2022/04/17 10:02:33;;;;;;;6.18;4.20;;;15.60;82.90;;;;;;4999074;28;20034;-81
2022/04/17 10:05:03;;;;;;;7.80;3.30;;;15.80;83.00;;;;;;4997215;28;20054;-82
2022/04/17 10:07:30;;;;;;;9.32;4.00;;;15.90;78.60;;;;;;4996575;28;20137;-81
2022/04/17 10:09:55;;;;;;;7.13;4.30;;;15.90;75.70;;;;;;4980529;28;20125;-81
2022/04/17 10:12:21;;;;;;;6.35;4.40;;;16.10;76.10;;;;;;4996100;28;20126;-83
2022/04/17 10:14:49;;;;;;;6.75;4.32;;;15.90;73.20;;;;;;4995829;28;20053;-81
2022/04/17 10:17:18;;;;;;;6.53;4.40;;;16.00;73.90;;;;;;4997013;28;20117;-82
2022/04/17 10:19:46;;;;;;;8.77;4.38;;;16.10;73.70;;;;;;4996622;28;20053;-81
2022/04/17 10:22:12;;;;;;;7.03;4.55;;;16.30;73.60;;;;;;4996826;28;20475;-82
2022/04/17 10:24:44;;;;;;;6.25;4.38;;;16.40;75.00;;;;;;4996928;28;20078;-83
2022/04/17 10:27:15;;;;;;;7.30;4.47;;;16.40;73.20;;;;;;4995813;28;20050;-82
2022/04/17 10:29:49;;;;;;;9.88;4.70;;;16.50;74.30;;;;;;4995427;28;20406;-79
2022/04/17 10:32:56;;;;;;;6.65;4.18;;;16.60;73.40;;;;;;4997098;28;20399;-81
2022/04/17 10:35:40;;;;;;;9.23;4.60;;;16.70;72.90;;;;;;4979223;28;20100;-82
2022/04/17 10:38:22;;;;;;;9.18;4.80;;;16.90;71.20;;;;;;4997135;28;20453;-82
2022/04/17 10:41:04;;;;;;;8.02;4.65;;;16.90;69.40;;;;;;4995001;28;20051;-82
2022/04/17 10:43:53;;;;;;;6.85;4.53;;;17.10;69.10;;;;;;4995246;28;20050;-82
2022/04/17 10:46:20;;;;;;;7.40;5.13;;;17.30;68.70;;;;;;4995066;28;20046;-81
2022/04/17 10:48:49;;;;;;;7.60;4.60;;;17.30;69.00;;;;;;4994869;28;20050;-82
2022/04/17 10:51:30;;;;;;;6.80;4.88;;;17.40;66.00;;;;;;4995838;28;20350;-83
2022/04/17 10:54:07;;;;;;;7.60;4.60;;;17.30;64.30;;;;;;4996036;28;20042;-81
2022/04/17 10:56:58;;;;;;;7.15;4.78;;;17.30;66.00;;;;;;4978714;28;20046;-81
2022/04/17 10:59:29;;;;;;;7.00;4.68;;;17.30;62.90;;;;;;4994959;28;20078;-81
2022/04/17 11:02:10;;;;;;;6.43;4.63;;;17.40;65.20;;;;;;4994483;28;20049;-83
2022/04/17 11:04:54;;;;;;;9.00;4.47;;;17.60;63.00;;;;;;4995123;28;20069;-81
2022/04/17 11:07:21;;;;;;;7.78;4.53;;;17.70;62.30;;;;;;4994497;28;20104;-82
2022/04/17 11:09:48;;;;;;;5.90;3.83;;;17.90;63.40;;;;;;4996041;28;20057;-83
2022/04/17 11:12:23;;;;;;;7.40;4.35;;;18.00;63.70;;;;;;4994587;28;20045;-83
2022/04/17 11:15:00;;;;;;;6.70;4.30;;;18.10;62.10;;;;;;4994558;28;20495;-82
2022/04/17 11:17:28;;;;;;;9.02;4.40;;;18.20;60.30;;;;;;4994449;28;20043;-81
2022/04/17 11:19:59;;;;;;;7.10;4.07;;;18.20;62.70;;;;;;4994813;28;20154;-81
2022/04/17 11:22:34;;;;;;;6.45;3.42;;;18.20;59.70;;;;;;4994695;28;20137;-81
2022/04/17 11:25:01;;;;;;;5.83;3.43;;;18.30;56.10;;;;;;4995462;28;20050;-81
2022/04/17 11:27:47;;;;;;;8.13;3.83;;;18.30;56.10;;;;;;4995680;28;20117;-80
2022/04/17 11:30:13;;;;;;;;;;;18.40;54.50;;;;;;4994464;28;20049;-81
2022/04/17 11:32:38;;;;;;;6.07;3.90;;;18.40;56.20;;;;;;4994232;28;20297;-79
2022/04/17 11:35:06;;;;;;;5.90;3.83;;;18.50;55.50;;;;;;4994289;28;20096;-81
2022/04/17 11:37:32;;;;;;;4.82;3.75;;;18.70;55.40;;;;;;4977701;28;20049;-78
2022/04/17 11:40:19;;;;;;;5.95;3.80;;;18.90;55.00;;;;;;4994476;28;20046;-80
2022/04/17 11:42:53;;;;;;;7.60;3.60;;;19.10;55.30;;;;;;4977458;28;20513;-79
2022/04/17 11:45:20;;;;;;;5.28;3.30;;;19.10;54.10;;;;;;4996353;28;20112;-81
2022/04/17 11:47:47;;;;;;;5.68;3.47;;;19.10;53.50;;;;;;4994209;28;20094;-82
2022/04/17 11:50:23;;;;;;;7.00;3.70;;;19.10;52.90;;;;;;4995237;28;20509;-79
2022/04/17 11:52:50;;;;;;;5.78;3.90;;;19.10;50.80;;;;;;4978610;28;20074;-79
2022/04/17 11:55:22;;;;;;;5.40;3.83;;;19.00;51.50;;;;;;4994505;28;20050;-79
2022/04/17 11:57:48;;;;;;;4.85;3.60;;;19.00;52.00;;;;;;4994144;28;20395;-80
2022/04/17 12:00:13;;;;;;;5.38;3.75;;;19.00;51.90;;;;;;4995319;28;20056;-80
2022/04/17 12:02:39;;;;;;;5.28;3.60;;;19.10;52.90;;;;;;4977164;28;20038;-80
2022/04/17 12:05:12;;;;;;;6.47;3.60;;;19.20;51.60;;;;;;4994896;28;20049;-81
2022/04/17 12:07:38;;;;;;;5.47;3.50;;;19.20;51.90;;;;;;4994581;28;20046;-77
2022/04/17 12:10:06;;;;;;;7.43;3.92;;;19.30;50.40;;;;;;4994956;28;20107;-81
2022/04/17 12:12:37;;;;;;;5.47;3.47;;;19.30;50.60;;;;;;5003618;28;20030;-77
2022/04/17 12:15:04;;;;;;;5.60;3.60;;;19.20;50.40;;;;;;4987878;28;20066;-79
2022/04/17 12:17:34;;;;;;;6.28;4.10;;;19.20;50.10;;;;;;5000201;28;20093;-80
2022/04/17 12:20:01;;;;;;;6.53;3.53;;;19.40;51.00;;;;;;4994774;28;20185;-80
2022/04/17 12:22:27;;;;;;;7.70;3.33;;;19.60;50.90;;;;;;4993887;28;20168;-80
2022/04/17 12:24:53;;;;;;;5.03;3.50;;;19.80;50.50;;;;;;4993547;28;20050;-80
2022/04/17 12:27:21;;;;;;;5.60;3.25;;;20.10;49.50;;;;;;4995846;28;20552;-80
2022/04/17 12:29:47;;;;;;;5.57;3.65;;;20.10;50.70;;;;;;4977032;28;20140;-80
2022/04/17 12:32:31;;;;;;;5.05;3.10;;;20.10;49.90;;;;;;4993107;28;20042;-80
2022/04/17 12:35:01;;;;;;;6.03;3.38;;;20.20;47.50;;;;;;4992933;28;20042;-80
2022/04/17 12:37:28;;;;;;;5.53;3.15;;;20.10;48.40;;;;;;4993558;28;20121;-80
2022/04/17 12:40:11;;;;;;;4.82;3.40;;;19.90;47.40;;;;;;4992887;28;20054;-81
2022/04/17 12:42:38;;;;;;;5.35;3.33;;;19.90;47.10;;;;;;4993010;28;20046;-82
2022/04/17 12:45:05;;;;;;;7.78;3.15;;;19.80;47.50;;;;;;4993148;28;20046;-81
2022/04/17 12:47:31;;;;;;;6.07;3.47;;;19.90;48.20;;;;;;4993085;28;20057;-82
2022/04/17 12:50:11;;;;;;;4.82;3.35;;;20.10;47.90;;;;;;4993239;28;20465;-79
2022/04/17 12:52:37;;;;;;;5.03;3.40;;;20.20;47.30;;;;;;4993840;28;20549;-80
2022/04/17 12:55:10;;;;;;;6.45;3.97;;;20.40;47.70;;;;;;4998304;28;20031;-81
2022/04/17 12:57:37;;;;;;;6.93;3.92;;;20.50;49.20;;;;;;4996956;28;20486;-81
2022/04/17 13:00:27;;;;;;;7.97;3.20;;;20.80;49.10;;;;;;4996827;28;20046;-82
2022/04/17 13:03:12;;;;;;;5.65;3.70;;;20.70;45.70;;;;;;4980435;28;20045;-81
2022/04/17 13:05:38;;;;;;;6.63;3.87;;;20.70;46.50;;;;;;4997325;28;20109;-81
2022/04/17 13:08:10;;;;;;;6.07;3.75;;;20.60;47.50;;;;;;4980458;28;20778;-81
2022/04/17 13:10:37;;;;;;;5.93;4.00;;;20.80;48.50;;;;;;4996631;28;20526;-81
2022/04/17 13:13:03;;;;;;;4.88;3.28;;;20.80;48.50;;;;;;4996307;28;20050;-81
2022/04/17 13:15:34;;;;;;;5.20;3.10;;;20.90;47.30;;;;;;4996779;28;20432;-80
2022/04/17 13:18:01;;;;;;;6.40;3.70;;;20.90;47.30;;;;;;4996456;28;20057;-79
2022/04/17 13:20:29;;;;;;;5.78;3.55;;;20.80;48.80;;;;;;4996110;28;20034;-82
2022/04/17 13:22:55;;;;;;;6.20;3.50;;;21.00;48.30;;;;;;4998071;28;20038;-81
2022/04/17 13:25:22;;;;;;;7.10;3.50;;;20.90;47.50;;;;;;4997287;28;20054;-79
2022/04/17 13:27:49;;;;;;;7.00;3.58;;;20.80;47.00;;;;;;4996826;28;20041;-80
2022/04/17 13:30:19;;;;;;;6.57;2.88;;;21.00;47.00;;;;;;4980499;28;20142;-80
2022/04/17 13:32:45;;;;;;;5.13;2.88;;;21.10;47.40;;;;;;4996719;28;20081;-81
2022/04/17 13:35:12;;;;;;;5.63;3.00;;;21.40;46.70;;;;;;4980679;28;20050;-82
2022/04/17 13:40:22;;;;;;;5.07;3.20;;;21.40;45.80;;;;;;4998356;28;20050;-81
2022/04/17 13:42:48;;;;;;;5.45;3.38;;;21.30;45.30;;;;;;4998740;28;20045;-81
2022/04/17 13:45:14;;;;;;;4.30;3.08;;;21.40;46.00;;;;;;4981362;28;20062;-82
2022/04/17 13:47:41;;;;;;;4.57;3.13;;;21.30;46.30;;;;;;4996652;28;20483;-81
2022/04/17 13:50:10;;;;;;;4.15;3.05;;;21.30;44.50;;;;;;4980320;28;20050;-81
2022/04/17 13:52:36;;;;;;;5.45;2.80;;;21.30;43.80;;;;;;4998570;28;20042;-79
2022/04/17 13:55:05;;;;;;;5.07;2.92;;;21.40;44.30;;;;;;4996156;28;20046;-80
2022/04/17 13:57:32;;;;;;;4.75;2.95;;;21.40;44.30;;;;;;4997539;28;20045;-82
2022/04/17 13:59:57;;;;;;;5.78;3.05;;;21.40;44.80;;;;;;4996317;28;20045;-82
2022/04/17 14:02:24;;;;;;;6.05;3.17;;;21.40;44.00;;;;;;4996380;28;20041;-81
2022/04/17 14:04:49;;;;;;;4.45;3.17;;;21.40;43.10;;;;;;4996161;28;20510;-80
2022/04/17 14:07:15;;;;;;;5.13;3.60;;;21.40;43.40;;;;;;4996446;28;20050;-81
2022/04/17 14:09:42;;;;;;;7.65;3.40;;;21.50;42.60;;;;;;4997799;28;20490;-82
2022/04/17 14:12:10;;;;;;;5.15;3.70;;;21.60;42.90;;;;;;4996026;28;20038;-81
2022/04/17 14:14:41;;;;;;;8.57;3.25;;;21.80;42.90;;;;;;4997688;28;20120;-83
2022/04/17 14:17:07;;;;;;;6.47;3.30;;;21.80;41.90;;;;;;4996289;28;20042;-82
2022/04/17 14:19:33;;;;;;;4.88;3.15;;;21.70;42.90;;;;;;4996521;28;20133;-82
2022/04/17 14:21:59;;;;;;;5.07;3.58;;;21.60;43.00;;;;;;4995938;28;20125;-81
2022/04/17 14:24:24;;;;;;;5.80;3.50;;;21.70;43.20;;;;;;4995881;28;20201;-80
2022/04/17 14:26:50;;;;;;;5.22;3.05;;;22.00;43.90;;;;;;4997109;28;20458;-79
2022/04/17 14:29:15;;;;;;;4.50;2.80;;;22.00;43.20;;;;;;4997483;28;20046;-80
2022/04/17 14:31:41;;;;;;;6.40;3.72;;;22.00;42.70;;;;;;4997278;28;20044;-80
2022/04/17 14:34:08;;;;;;;5.30;3.35;;;22.10;42.80;;;;;;4979520;28;20042;-81
2022/04/17 14:36:34;;;;;;;6.32;3.85;;;22.20;43.80;;;;;;4996994;28;20050;-80
2022/04/17 14:39:00;;;;;;;5.05;3.67;;;22.40;43.80;;;;;;4996043;28;20061;-82
2022/04/17 14:41:25;;;;;;;5.65;3.85;;;22.50;43.50;;;;;;4995791;28;20046;-82
2022/04/17 14:43:51;;;;;;;4.70;3.33;;;22.50;43.70;;;;;;4995610;28;20548;-81
2022/04/17 14:46:16;;;;;;;5.22;3.42;;;22.50;43.70;;;;;;4995840;28;20042;-80
2022/04/17 14:48:42;;;;;;;4.18;3.10;;;22.50;42.10;;;;;;4995247;28;20085;-83
2022/04/17 14:51:08;;;;;;;7.22;3.83;;;22.40;42.30;;;;;;4996442;28;20039;-81
2022/04/17 14:53:35;;;;;;;6.50;3.65;;;22.30;41.70;;;;;;4995462;28;20038;-80
2022/04/17 14:56:01;;;;;;;4.75;3.28;;;22.40;42.00;;;;;;4996887;28;20121;-82
2022/04/17 14:58:27;;;;;;;4.72;3.17;;;22.30;41.20;;;;;;4995424;28;20046;-79
2022/04/17 15:00:53;;;;;;;5.40;3.50;;;22.40;42.00;;;;;;4996209;28;20035;-82
2022/04/17 15:03:19;;;;;;;4.85;3.72;;;22.30;40.80;;;;;;4996558;28;20038;-80
2022/04/17 15:05:45;;;;;;;6.85;3.70;;;22.40;41.30;;;;;;4995083;28;20057;-81
2022/04/17 15:08:11;;;;;;;5.93;3.53;;;22.30;41.30;;;;;;4978565;28;20046;-82
2022/04/17 15:10:39;;;;;;;5.22;3.28;;;22.30;41.60;;;;;;4995092;28;20085;-80
2022/04/17 15:13:09;;;;;;;5.60;3.40;;;22.50;42.30;;;;;;4995475;28;20046;-79
2022/04/17 15:15:35;;;;;;;5.43;3.80;;;22.60;42.20;;;;;;4994474;28;20117;-78
2022/04/17 15:18:02;;;;;;;5.25;3.53;;;22.60;42.20;;;;;;4995130;28;20051;-80
2022/04/17 15:20:28;;;;;;;5.28;3.42;;;22.50;41.60;;;;;;4995324;28;20390;-83
2022/04/17 15:22:53;;;;;;;5.82;3.70;;;22.40;41.90;;;;;;4996212;28;20035;-81
2022/04/17 15:25:19;;;;;;;5.65;3.30;;;22.40;41.10;;;;;;4995035;28;20038;-82
2022/04/17 15:27:45;;;;;;;5.57;3.28;;;22.30;40.30;;;;;;4995121;28;20038;-81
2022/04/17 15:30:11;;;;;;;5.97;3.65;;;22.20;41.20;;;;;;4995272;28;20082;-81
2022/04/17 15:32:36;;;;;;;5.57;3.50;;;22.30;41.90;;;;;;4995170;28;20080;-80
2022/04/17 15:35:02;;;;;;;7.18;3.92;;;22.30;41.20;;;;;;4995037;28;20407;-80
2022/04/17 15:37:28;;;;;;;5.40;3.22;;;22.20;41.00;;;;;;4995185;28;20093;-81
2022/04/17 15:39:55;;;;;;;6.47;3.75;;;22.10;40.50;;;;;;4994527;28;20038;-80
2022/04/17 15:42:21;;;;;;;6.75;4.25;;;22.10;40.60;;;;;;4994853;28;20042;-80
2022/04/17 15:50:15;;;;;;;4.97;3.33;;;22.00;40.10;;;;;;4994142;28;20046;-78
2022/04/17 15:52:40;;;;;;;5.68;3.72;;;21.90;40.70;;;;;;4977807;28;20040;-83
2022/04/17 15:55:06;;;;;;;5.50;3.75;;;21.90;40.30;;;;;;4994586;28;20058;-83
2022/04/17 15:57:32;;;;;;;7.40;3.55;;;21.70;40.40;;;;;;4977786;28;20066;-82
2022/04/17 15:59:57;;;;;;;5.60;3.55;;;21.70;39.90;;;;;;4978453;28;20074;-82
2022/04/17 16:02:23;;;;;;;4.82;2.97;;;21.70;39.90;;;;;;4994095;28;20038;-82
2022/04/17 16:04:48;;;;;;;6.80;3.85;;;21.60;40.30;;;;;;4994163;28;20080;-82
2022/04/17 16:07:14;;;;;;;7.00;3.65;;;21.60;40.10;;;;;;4994494;28;20402;-81
2022/04/17 16:09:41;;;;;;;6.50;3.55;;;21.60;40.00;;;;;;4993950;28;20046;-79
2022/04/17 16:12:07;;;;;;;7.53;4.00;;;21.70;40.40;;;;;;4994074;28;20542;-81
2022/04/17 16:14:33;;;;;;;7.30;3.70;;;21.70;40.50;;;;;;4993997;28;20207;-82
2022/04/17 16:16:58;;;;;;;7.45;3.70;;;21.70;40.60;;;;;;4995445;28;20391;-82
2022/04/17 16:19:24;;;;;;;6.22;3.53;;;21.80;40.40;;;;;;4993752;28;20042;-83
2022/04/17 16:21:49;;;;;;;6.63;3.67;;;21.70;40.60;;;;;;4995776;28;20038;-82
2022/04/17 16:24:15;;;;;;;6.32;3.90;;;21.60;40.50;;;;;;4994575;28;20034;-82
2022/04/17 16:26:45;;;;;;;6.93;4.40;;;21.50;40.80;;;;;;4993579;28;20475;-81
2022/04/17 16:29:12;;;;;;;5.82;3.67;;;21.40;41.10;;;;;;4993765;28;20049;-79
2022/04/17 16:31:38;;;;;;;6.43;4.13;;;21.40;41.70;;;;;;4994053;28;20098;-82
2022/04/17 16:34:04;;;;;;;6.75;3.92;;;21.30;41.90;;;;;;4994362;28;20092;-82
2022/04/17 16:36:29;;;;;;;6.57;3.60;;;21.30;42.10;;;;;;4977860;28;20085;-81
2022/04/17 16:38:55;;;;;;;6.63;3.78;;;21.20;42.40;;;;;;4977668;28;20046;-82
2022/04/17 16:41:20;;;;;;;5.47;3.42;;;21.20;42.80;;;;;;4994235;28;20131;-77
2022/04/17 16:43:46;;;;;;;5.03;3.50;;;21.10;42.70;;;;;;4993999;28;20047;-81
2022/04/17 16:46:12;;;;;;;4.65;3.30;;;21.10;43.20;;;;;;4994286;28;20049;-80
2022/04/17 16:48:38;;;;;;;6.13;3.80;;;21.00;44.00;;;;;;4994466;28;20361;-80
2022/04/17 16:51:04;;;;;;;4.85;3.17;;;20.80;44.00;;;;;;4995313;28;20114;-80
2022/04/17 16:53:30;;;;;;;5.07;3.20;;;20.80;43.50;;;;;;4993724;28;20494;-79
2022/04/17 16:55:56;;;;;;;5.18;2.88;;;20.80;42.90;;;;;;4993981;28;20118;-81
2022/04/17 17:01:12;;;;;;;5.57;2.90;;;21.00;43.40;;;;;;4993346;28;20046;-83
2022/04/17 17:03:39;;;;;;;3.53;2.47;;;21.00;42.90;;;;;;4993895;28;20474;-80
2022/04/17 17:06:05;;;;;;;4.63;2.78;;;21.10;42.20;;;;;;4993857;28;20106;-80
2022/04/17 17:08:31;;;;;;;5.68;2.72;;;21.10;41.90;;;;;;4977026;28;20121;-80
2022/04/17 17:10:57;;;;;;;5.63;2.92;;;21.00;42.50;;;;;;4977941;28;20054;-78